sensor_id;sensor_type;location;lat;lon;timestamp;temperature;humidity
38380;DHT22;38377;47.418;18.882;2023-03-26T00:00:44;7.70;97.50
38380;DHT22;38377;47.418;18.882;2023-03-26T00:03:14;7.60;97.60
38380;DHT22;38377;47.418;18.882;2023-03-26T00:05:41;7.50;97.80
38380;DHT22;38377;47.418;18.882;2023-03-26T00:08:08;7.50;98.00
38380;DHT22;38377;47.418;18.882;2023-03-26T00:10:35;7.50;98.10
38380;DHT22;38377;47.418;18.882;2023-03-26T00:13:03;7.40;98.10
38380;DHT22;38377;47.418;18.882;2023-03-26T00:15:29;7.40;98.20
38380;DHT22;38377;47.418;18.882;2023-03-26T00:17:55;7.40;98.30
38380;DHT22;38377;47.418;18.882;2023-03-26T00:20:21;7.40;98.40
38380;DHT22;38377;47.418;18.882;2023-03-26T00:22:47;7.30;98.50
38380;DHT22;38377;47.418;18.882;2023-03-26T00:25:13;7.30;98.40
38380;DHT22;38377;47.418;18.882;2023-03-26T00:27:39;7.30;98.40
38380;DHT22;38377;47.418;18.882;2023-03-26T00:30:05;7.30;98.40
38380;DHT22;38377;47.418;18.882;2023-03-26T00:32:32;7.30;98.40
38380;DHT22;38377;47.418;18.882;2023-03-26T00:34:57;7.30;98.60
38380;DHT22;38377;47.418;18.882;2023-03-26T00:37:25;7.30;98.50
38380;DHT22;38377;47.418;18.882;2023-03-26T00:39:52;7.40;98.40
38380;DHT22;38377;47.418;18.882;2023-03-26T00:42:18;7.40;98.50
38380;DHT22;38377;47.418;18.882;2023-03-26T00:44:44;7.40;98.60
38380;DHT22;38377;47.418;18.882;2023-03-26T00:47:10;7.40;98.50
38380;DHT22;38377;47.418;18.882;2023-03-26T00:49:36;7.40;98.50
38380;DHT22;38377;47.418;18.882;2023-03-26T00:52:01;7.50;98.40
38380;DHT22;38377;47.418;18.882;2023-03-26T00:54:28;7.50;98.40
38380;DHT22;38377;47.418;18.882;2023-03-26T00:56:54;7.50;98.20
38380;DHT22;38377;47.418;18.882;2023-03-26T00:59:21;7.60;98.10
38380;DHT22;38377;47.418;18.882;2023-03-26T01:01:48;7.60;98.10
38380;DHT22;38377;47.418;18.882;2023-03-26T01:04:29;7.50;98.20
38380;DHT22;38377;47.418;18.882;2023-03-26T01:06:57;7.50;98.20
38380;DHT22;38377;47.418;18.882;2023-03-26T01:09:38;7.50;98.00
38380;DHT22;38377;47.418;18.882;2023-03-26T01:12:13;7.60;97.90
38380;DHT22;38377;47.418;18.882;2023-03-26T01:14:43;7.60;97.90
38380;DHT22;38377;47.418;18.882;2023-03-26T01:17:11;7.50;98.00
38380;DHT22;38377;47.418;18.882;2023-03-26T01:19:48;7.50;97.80
38380;DHT22;38377;47.418;18.882;2023-03-26T01:22:25;7.50;97.70
38380;DHT22;38377;47.418;18.882;2023-03-26T01:24:51;7.50;97.60
38380;DHT22;38377;47.418;18.882;2023-03-26T01:27:29;7.50;97.50
38380;DHT22;38377;47.418;18.882;2023-03-26T01:30:04;7.50;97.60
38380;DHT22;38377;47.418;18.882;2023-03-26T01:35:51;7.50;97.30
38380;DHT22;38377;47.418;18.882;2023-03-26T01:46:54;7.40;97.40
38380;DHT22;38377;47.418;18.882;2023-03-26T01:49:21;7.30;97.40
38380;DHT22;38377;47.418;18.882;2023-03-26T01:51:46;7.30;97.70
38380;DHT22;38377;47.418;18.882;2023-03-26T01:54:17;7.30;97.70
38380;DHT22;38377;47.418;18.882;2023-03-26T02:02:40;7.20;98.10
38380;DHT22;38377;47.418;18.882;2023-03-26T02:05:16;7.10;98.00
38380;DHT22;38377;47.418;18.882;2023-03-26T02:07:53;7.10;98.10
38380;DHT22;38377;47.418;18.882;2023-03-26T02:10:24;7.00;98.10
38380;DHT22;38377;47.418;18.882;2023-03-26T02:12:51;7.00;98.20
38380;DHT22;38377;47.418;18.882;2023-03-26T02:15:17;7.00;98.20
38380;DHT22;38377;47.418;18.882;2023-03-26T02:17:42;7.00;98.20
38380;DHT22;38377;47.418;18.882;2023-03-26T02:20:10;7.00;98.30
38380;DHT22;38377;47.418;18.882;2023-03-26T02:22:39;7.00;98.20
38380;DHT22;38377;47.418;18.882;2023-03-26T02:25:13;6.90;98.20
38380;DHT22;38377;47.418;18.882;2023-03-26T02:27:41;6.90;98.30
38380;DHT22;38377;47.418;18.882;2023-03-26T02:30:11;6.90;98.30
38380;DHT22;38377;47.418;18.882;2023-03-26T02:32:37;6.90;98.30
38380;DHT22;38377;47.418;18.882;2023-03-26T02:35:04;6.80;98.60
38380;DHT22;38377;47.418;18.882;2023-03-26T02:37:31;6.80;98.60
38380;DHT22;38377;47.418;18.882;2023-03-26T02:40:00;6.70;98.70
38380;DHT22;38377;47.418;18.882;2023-03-26T02:42:26;6.70;98.60
38380;DHT22;38377;47.418;18.882;2023-03-26T02:44:51;6.70;98.60
38380;DHT22;38377;47.418;18.882;2023-03-26T02:47:17;6.70;98.60
38380;DHT22;38377;47.418;18.882;2023-03-26T02:49:43;6.60;98.80
38380;DHT22;38377;47.418;18.882;2023-03-26T02:52:09;6.50;99.10
38380;DHT22;38377;47.418;18.882;2023-03-26T02:54:35;6.50;99.00
38380;DHT22;38377;47.418;18.882;2023-03-26T02:57:01;6.50;99.20
38380;DHT22;38377;47.418;18.882;2023-03-26T02:59:27;6.50;99.40
38380;DHT22;38377;47.418;18.882;2023-03-26T03:01:52;6.50;99.50
38380;DHT22;38377;47.418;18.882;2023-03-26T03:04:19;6.50;99.30
38380;DHT22;38377;47.418;18.882;2023-03-26T03:06:44;6.50;99.30
38380;DHT22;38377;47.418;18.882;2023-03-26T03:09:11;6.60;99.30
38380;DHT22;38377;47.418;18.882;2023-03-26T03:11:38;6.60;99.20
38380;DHT22;38377;47.418;18.882;2023-03-26T03:14:05;6.60;99.20
38380;DHT22;38377;47.418;18.882;2023-03-26T03:16:31;6.70;99.00
38380;DHT22;38377;47.418;18.882;2023-03-26T03:18:57;6.60;99.00
38380;DHT22;38377;47.418;18.882;2023-03-26T03:21:25;6.60;99.00
38380;DHT22;38377;47.418;18.882;2023-03-26T03:23:52;6.60;99.10
38380;DHT22;38377;47.418;18.882;2023-03-26T03:26:20;6.60;99.20
38380;DHT22;38377;47.418;18.882;2023-03-26T03:28:49;6.60;99.20
38380;DHT22;38377;47.418;18.882;2023-03-26T03:31:16;6.50;99.30
38380;DHT22;38377;47.418;18.882;2023-03-26T03:33:42;6.50;99.40
38380;DHT22;38377;47.418;18.882;2023-03-26T03:36:09;6.50;99.50
38380;DHT22;38377;47.418;18.882;2023-03-26T03:38:41;6.40;99.60
38380;DHT22;38377;47.418;18.882;2023-03-26T03:41:08;6.40;99.80
38380;DHT22;38377;47.418;18.882;2023-03-26T03:43:33;6.30;99.90
38380;DHT22;38377;47.418;18.882;2023-03-26T03:46:00;6.20;99.90
38380;DHT22;38377;47.418;18.882;2023-03-26T03:48:26;6.20;99.90
38380;DHT22;38377;47.418;18.882;2023-03-26T03:50:53;6.10;99.90
38380;DHT22;38377;47.418;18.882;2023-03-26T03:53:20;6.20;99.90
38380;DHT22;38377;47.418;18.882;2023-03-26T03:55:46;6.10;99.90
38380;DHT22;38377;47.418;18.882;2023-03-26T03:58:22;6.10;99.90
38380;DHT22;38377;47.418;18.882;2023-03-26T04:00:51;6.10;99.90
38380;DHT22;38377;47.418;18.882;2023-03-26T04:03:18;6.00;99.90
38380;DHT22;38377;47.418;18.882;2023-03-26T04:05:45;6.00;99.90
38380;DHT22;38377;47.418;18.882;2023-03-26T04:08:17;6.10;99.90
38380;DHT22;38377;47.418;18.882;2023-03-26T04:10:43;6.10;99.90
38380;DHT22;38377;47.418;18.882;2023-03-26T04:13:13;6.10;99.90
38380;DHT22;38377;47.418;18.882;2023-03-26T04:15:40;6.10;99.90
38380;DHT22;38377;47.418;18.882;2023-03-26T04:18:07;6.00;99.90
38380;DHT22;38377;47.418;18.882;2023-03-26T04:20:44;6.00;99.90
38380;DHT22;38377;47.418;18.882;2023-03-26T04:23:17;6.00;99.90
38380;DHT22;38377;47.418;18.882;2023-03-26T04:25:50;6.00;99.90
38380;DHT22;38377;47.418;18.882;2023-03-26T04:28:43;6.00;99.90
38380;DHT22;38377;47.418;18.882;2023-03-26T04:31:13;6.00;99.90
38380;DHT22;38377;47.418;18.882;2023-03-26T04:33:44;5.90;99.90
38380;DHT22;38377;47.418;18.882;2023-03-26T04:36:14;5.90;99.90
38380;DHT22;38377;47.418;18.882;2023-03-26T04:38:42;5.90;99.90
38380;DHT22;38377;47.418;18.882;2023-03-26T04:41:11;5.80;99.90
38380;DHT22;38377;47.418;18.882;2023-03-26T04:43:37;5.80;99.90
38380;DHT22;38377;47.418;18.882;2023-03-26T04:46:07;5.70;99.90
38380;DHT22;38377;47.418;18.882;2023-03-26T04:48:35;5.70;99.90
38380;DHT22;38377;47.418;18.882;2023-03-26T04:51:03;5.70;99.90
38380;DHT22;38377;47.418;18.882;2023-03-26T04:53:32;5.60;99.90
38380;DHT22;38377;47.418;18.882;2023-03-26T04:56:02;5.50;99.90
38380;DHT22;38377;47.418;18.882;2023-03-26T04:58:30;5.50;99.90
38380;DHT22;38377;47.418;18.882;2023-03-26T05:00:59;5.50;99.90
38380;DHT22;38377;47.418;18.882;2023-03-26T05:03:26;5.60;99.90
38380;DHT22;38377;47.418;18.882;2023-03-26T05:05:57;5.90;99.90
38380;DHT22;38377;47.418;18.882;2023-03-26T05:08:23;6.00;99.90
38380;DHT22;38377;47.418;18.882;2023-03-26T05:10:49;6.30;99.90
38380;DHT22;38377;47.418;18.882;2023-03-26T05:13:14;6.50;99.90
38380;DHT22;38377;47.418;18.882;2023-03-26T05:15:40;6.90;99.80
38380;DHT22;38377;47.418;18.882;2023-03-26T05:18:06;7.10;99.50
38380;DHT22;38377;47.418;18.882;2023-03-26T05:20:33;7.30;99.20
38380;DHT22;38377;47.418;18.882;2023-03-26T05:22:59;7.50;98.80
38380;DHT22;38377;47.418;18.882;2023-03-26T05:25:24;7.60;98.30
38380;DHT22;38377;47.418;18.882;2023-03-26T05:27:50;7.60;98.10
38380;DHT22;38377;47.418;18.882;2023-03-26T05:30:19;7.70;97.90
38380;DHT22;38377;47.418;18.882;2023-03-26T05:32:46;7.80;98.30
38380;DHT22;38377;47.418;18.882;2023-03-26T05:35:16;7.80;99.60
38380;DHT22;38377;47.418;18.882;2023-03-26T05:37:44;7.80;99.70
38380;DHT22;38377;47.418;18.882;2023-03-26T05:40:11;7.90;99.60
38380;DHT22;38377;47.418;18.882;2023-03-26T05:42:39;7.80;99.60
38380;DHT22;38377;47.418;18.882;2023-03-26T05:45:07;7.80;99.70
38380;DHT22;38377;47.418;18.882;2023-03-26T05:47:33;7.90;99.90
38380;DHT22;38377;47.418;18.882;2023-03-26T05:49:59;7.90;99.90
38380;DHT22;38377;47.418;18.882;2023-03-26T05:52:25;7.80;99.90
38380;DHT22;38377;47.418;18.882;2023-03-26T05:54:51;7.80;99.90
38380;DHT22;38377;47.418;18.882;2023-03-26T05:57:16;7.90;99.90
38380;DHT22;38377;47.418;18.882;2023-03-26T05:59:43;8.10;99.90
38380;DHT22;38377;47.418;18.882;2023-03-26T06:02:09;8.50;99.00
38380;DHT22;38377;47.418;18.882;2023-03-26T06:04:36;9.20;97.30
38380;DHT22;38377;47.418;18.882;2023-03-26T06:07:06;9.60;95.20
38380;DHT22;38377;47.418;18.882;2023-03-26T06:09:36;10.10;94.70
38380;DHT22;38377;47.418;18.882;2023-03-26T06:12:05;10.50;93.90
38380;DHT22;38377;47.418;18.882;2023-03-26T06:14:31;10.70;92.80
38380;DHT22;38377;47.418;18.882;2023-03-26T06:16:57;11.00;92.10
38380;DHT22;38377;47.418;18.882;2023-03-26T06:19:23;11.00;90.70
38380;DHT22;38377;47.418;18.882;2023-03-26T06:21:49;11.00;90.50
38380;DHT22;38377;47.418;18.882;2023-03-26T06:24:14;11.00;90.60
38380;DHT22;38377;47.418;18.882;2023-03-26T06:26:44;11.00;89.20
38380;DHT22;38377;47.418;18.882;2023-03-26T06:29:11;11.10;89.70
38380;DHT22;38377;47.418;18.882;2023-03-26T06:31:37;11.30;89.50
38380;DHT22;38377;47.418;18.882;2023-03-26T06:34:03;11.30;88.60
38380;DHT22;38377;47.418;18.882;2023-03-26T06:36:28;11.20;87.70
38380;DHT22;38377;47.418;18.882;2023-03-26T06:38:54;11.10;88.20
38380;DHT22;38377;47.418;18.882;2023-03-26T06:41:19;11.30;87.90
38380;DHT22;38377;47.418;18.882;2023-03-26T06:43:45;11.30;88.20
38380;DHT22;38377;47.418;18.882;2023-03-26T06:46:11;11.30;90.40
38380;DHT22;38377;47.418;18.882;2023-03-26T06:48:38;11.30;91.20
38380;DHT22;38377;47.418;18.882;2023-03-26T06:51:04;11.40;90.40
38380;DHT22;38377;47.418;18.882;2023-03-26T06:53:30;11.30;91.40
38380;DHT22;38377;47.418;18.882;2023-03-26T06:55:56;11.10;91.40
38380;DHT22;38377;47.418;18.882;2023-03-26T06:58:22;11.00;91.60
38380;DHT22;38377;47.418;18.882;2023-03-26T07:00:47;11.00;91.70
38380;DHT22;38377;47.418;18.882;2023-03-26T07:03:16;11.00;92.40
38380;DHT22;38377;47.418;18.882;2023-03-26T07:05:42;10.70;92.50
38380;DHT22;38377;47.418;18.882;2023-03-26T07:08:08;10.40;93.40
38380;DHT22;38377;47.418;18.882;2023-03-26T07:10:34;10.30;92.90
38380;DHT22;38377;47.418;18.882;2023-03-26T07:12:59;10.20;93.00
38380;DHT22;38377;47.418;18.882;2023-03-26T07:15:27;10.40;92.90
38380;DHT22;38377;47.418;18.882;2023-03-26T07:17:53;10.70;92.40
38380;DHT22;38377;47.418;18.882;2023-03-26T07:20:19;11.00;92.10
38380;DHT22;38377;47.418;18.882;2023-03-26T07:22:45;11.20;91.20
38380;DHT22;38377;47.418;18.882;2023-03-26T07:25:13;11.60;92.30
38380;DHT22;38377;47.418;18.882;2023-03-26T07:28:05;11.60;91.70
38380;DHT22;38377;47.418;18.882;2023-03-26T07:33:17;11.90;91.00
38380;DHT22;38377;47.418;18.882;2023-03-26T07:41:49;12.40;91.80
38380;DHT22;38377;47.418;18.882;2023-03-26T07:47:32;12.20;92.10
38380;DHT22;38377;47.418;18.882;2023-03-26T07:49:58;12.00;92.20
38380;DHT22;38377;47.418;18.882;2023-03-26T07:52:25;11.90;91.80
38380;DHT22;38377;47.418;18.882;2023-03-26T07:54:51;11.80;92.60
38380;DHT22;38377;47.418;18.882;2023-03-26T08:00:45;11.80;92.70
38380;DHT22;38377;47.418;18.882;2023-03-26T08:06:25;11.80;91.50
38380;DHT22;38377;47.418;18.882;2023-03-26T08:22:39;12.20;87.70
38380;DHT22;38377;47.418;18.882;2023-03-26T08:25:32;12.10;88.20
38380;DHT22;38377;47.418;18.882;2023-03-26T08:30:27;12.40;88.10
38380;DHT22;38377;47.418;18.882;2023-03-26T08:33:16;12.50;87.60
38380;DHT22;38377;47.418;18.882;2023-03-26T08:35:45;12.50;87.20
38380;DHT22;38377;47.418;18.882;2023-03-26T08:38:13;12.60;85.70
38380;DHT22;38377;47.418;18.882;2023-03-26T08:49:02;12.70;83.10
38380;DHT22;38377;47.418;18.882;2023-03-26T08:51:52;12.80;84.40
38380;DHT22;38377;47.418;18.882;2023-03-26T09:02:31;13.40;85.80
38380;DHT22;38377;47.418;18.882;2023-03-26T09:08:04;13.60;83.10
38380;DHT22;38377;47.418;18.882;2023-03-26T09:10:43;13.90;87.80
38380;DHT22;38377;47.418;18.882;2023-03-26T09:24:26;13.90;85.80
38380;DHT22;38377;47.418;18.882;2023-03-26T09:32:45;14.10;84.40
38380;DHT22;38377;47.418;18.882;2023-03-26T09:57:40;14.20;81.10
38380;DHT22;38377;47.418;18.882;2023-03-26T10:11:38;13.30;89.20
38380;DHT22;38377;47.418;18.882;2023-03-26T10:33:27;12.70;93.10
38380;DHT22;38377;47.418;18.882;2023-03-26T10:44:35;13.30;90.50
38380;DHT22;38377;47.418;18.882;2023-03-26T10:47:31;13.10;85.30
38380;DHT22;38377;47.418;18.882;2023-03-26T10:50:40;13.10;91.10
38380;DHT22;38377;47.418;18.882;2023-03-26T10:56:33;12.90;91.00
38380;DHT22;38377;47.418;18.882;2023-03-26T10:59:06;12.70;90.60
38380;DHT22;38377;47.418;18.882;2023-03-26T11:01:40;12.60;90.50
38380;DHT22;38377;47.418;18.882;2023-03-26T11:04:22;12.50;90.40
38380;DHT22;38377;47.418;18.882;2023-03-26T11:18:06;13.20;90.00
38380;DHT22;38377;47.418;18.882;2023-03-26T11:21:07;13.20;86.20
38380;DHT22;38377;47.418;18.882;2023-03-26T11:26:17;13.50;88.90
38380;DHT22;38377;47.418;18.882;2023-03-26T11:33:56;14.20;87.90
38380;DHT22;38377;47.418;18.882;2023-03-26T11:36:29;14.80;86.90
38380;DHT22;38377;47.418;18.882;2023-03-26T11:38:56;15.20;85.10
38380;DHT22;38377;47.418;18.882;2023-03-26T11:41:28;15.20;81.20
38380;DHT22;38377;47.418;18.882;2023-03-26T11:46:27;14.60;77.10
38380;DHT22;38377;47.418;18.882;2023-03-26T11:48:56;14.50;77.00
38380;DHT22;38377;47.418;18.882;2023-03-26T11:51:30;14.50;76.90
38380;DHT22;38377;47.418;18.882;2023-03-26T11:53:58;14.70;76.00
38380;DHT22;38377;47.418;18.882;2023-03-26T11:59:27;16.10;73.00
38380;DHT22;38377;47.418;18.882;2023-03-26T12:07:17;17.30;65.40
38380;DHT22;38377;47.418;18.882;2023-03-26T12:10:21;17.10;61.90
38380;DHT22;38377;47.418;18.882;2023-03-26T12:12:47;17.30;61.70
38380;DHT22;38377;47.418;18.882;2023-03-26T12:15:15;17.20;61.00
38380;DHT22;38377;47.418;18.882;2023-03-26T12:17:51;17.60;61.60
38380;DHT22;38377;47.418;18.882;2023-03-26T12:22:59;18.20;59.70
38380;DHT22;38377;47.418;18.882;2023-03-26T12:25:25;17.90;58.10
38380;DHT22;38377;47.418;18.882;2023-03-26T12:30:51;16.80;58.70
38380;DHT22;38377;47.418;18.882;2023-03-26T12:33:25;16.40;60.60
38380;DHT22;38377;47.418;18.882;2023-03-26T12:35:53;16.20;62.20
38380;DHT22;38377;47.418;18.882;2023-03-26T12:38:29;16.10;61.70
38380;DHT22;38377;47.418;18.882;2023-03-26T12:41:08;15.90;61.80
38380;DHT22;38377;47.418;18.882;2023-03-26T12:43:44;15.80;63.30
38380;DHT22;38377;47.418;18.882;2023-03-26T12:46:26;15.80;64.00
38380;DHT22;38377;47.418;18.882;2023-03-26T12:48:55;15.80;63.90
38380;DHT22;38377;47.418;18.882;2023-03-26T13:13:20;16.80;63.90
38380;DHT22;38377;47.418;18.882;2023-03-26T13:15:59;17.10;61.30
38380;DHT22;38377;47.418;18.882;2023-03-26T13:34:31;16.60;63.30
38380;DHT22;38377;47.418;18.882;2023-03-26T13:40:15;16.70;61.00
38380;DHT22;38377;47.418;18.882;2023-03-26T13:48:15;16.70;60.60
38380;DHT22;38377;47.418;18.882;2023-03-26T13:50:45;16.70;62.90
38380;DHT22;38377;47.418;18.882;2023-03-26T13:53:24;17.00;61.90
38380;DHT22;38377;47.418;18.882;2023-03-26T13:55:58;17.20;59.70
38380;DHT22;38377;47.418;18.882;2023-03-26T13:58:30;17.30;60.20
38380;DHT22;38377;47.418;18.882;2023-03-26T14:01:10;17.30;59.80
38380;DHT22;38377;47.418;18.882;2023-03-26T14:03:54;17.10;59.90
38380;DHT22;38377;47.418;18.882;2023-03-26T14:14:51;16.90;59.50
38380;DHT22;38377;47.418;18.882;2023-03-26T14:25:54;17.40;59.60
38380;DHT22;38377;47.418;18.882;2023-03-26T14:36:29;17.40;55.90
38380;DHT22;38377;47.418;18.882;2023-03-26T14:41:51;17.30;54.50
38380;DHT22;38377;47.418;18.882;2023-03-26T14:47:21;17.30;54.70
38380;DHT22;38377;47.418;18.882;2023-03-26T14:52:53;17.30;55.00
38380;DHT22;38377;47.418;18.882;2023-03-26T15:04:26;17.30;55.60
38380;DHT22;38377;47.418;18.882;2023-03-26T15:10:43;17.10;57.10
38380;DHT22;38377;47.418;18.882;2023-03-26T15:21:20;17.20;56.30
38380;DHT22;38377;47.418;18.882;2023-03-26T15:24:39;17.10;56.90
38380;DHT22;38377;47.418;18.882;2023-03-26T15:49:40;16.10;59.80
38380;DHT22;38377;47.418;18.882;2023-03-26T15:52:26;16.00;60.20
38380;DHT22;38377;47.418;18.882;2023-03-26T15:58:03;15.80;61.10
38380;DHT22;38377;47.418;18.882;2023-03-26T16:00:40;15.80;60.60
38380;DHT22;38377;47.418;18.882;2023-03-26T16:11:05;15.30;62.00
38380;DHT22;38377;47.418;18.882;2023-03-26T16:13:48;15.20;62.30
38380;DHT22;38377;47.418;18.882;2023-03-26T16:16:23;15.10;63.60
38380;DHT22;38377;47.418;18.882;2023-03-26T16:18:58;14.90;62.30
38380;DHT22;38377;47.418;18.882;2023-03-26T16:21:52;14.90;62.50
38380;DHT22;38377;47.418;18.882;2023-03-26T16:24:25;14.70;63.00
38380;DHT22;38377;47.418;18.882;2023-03-26T16:27:02;14.60;63.50
38380;DHT22;38377;47.418;18.882;2023-03-26T16:35:03;14.30;65.10
38380;DHT22;38377;47.418;18.882;2023-03-26T16:37:48;14.20;64.60
38380;DHT22;38377;47.418;18.882;2023-03-26T16:46:03;13.90;68.00
38380;DHT22;38377;47.418;18.882;2023-03-26T16:48:32;13.80;67.20
38380;DHT22;38377;47.418;18.882;2023-03-26T16:56:52;13.50;68.60
38380;DHT22;38377;47.418;18.882;2023-03-26T17:02:25;13.40;68.80
38380;DHT22;38377;47.418;18.882;2023-03-26T17:05:16;13.30;69.80
38380;DHT22;38377;47.418;18.882;2023-03-26T17:10:43;13.20;70.50
38380;DHT22;38377;47.418;18.882;2023-03-26T17:19:15;13.00;71.10
38380;DHT22;38377;47.418;18.882;2023-03-26T17:25:17;12.90;71.00
38380;DHT22;38377;47.418;18.882;2023-03-26T17:33:19;12.80;72.20
38380;DHT22;38377;47.418;18.882;2023-03-26T17:35:49;12.80;72.80
38380;DHT22;38377;47.418;18.882;2023-03-26T17:40:56;12.80;72.40
38380;DHT22;38377;47.418;18.882;2023-03-26T17:43:49;12.80;72.80
38380;DHT22;38377;47.418;18.882;2023-03-26T17:54:23;12.70;74.10
38380;DHT22;38377;47.418;18.882;2023-03-26T17:56:52;12.70;73.80
38380;DHT22;38377;47.418;18.882;2023-03-26T17:59:21;12.60;74.20
38380;DHT22;38377;47.418;18.882;2023-03-26T18:01:59;12.70;74.70
38380;DHT22;38377;47.418;18.882;2023-03-26T18:04:39;12.70;74.40
38380;DHT22;38377;47.418;18.882;2023-03-26T18:16:02;12.50;76.10
38380;DHT22;38377;47.418;18.882;2023-03-26T18:18:36;12.40;76.40
38380;DHT22;38377;47.418;18.882;2023-03-26T18:21:05;12.30;76.50
38380;DHT22;38377;47.418;18.882;2023-03-26T18:23:37;12.20;76.40
38380;DHT22;38377;47.418;18.882;2023-03-26T18:26:18;12.10;76.60
38380;DHT22;38377;47.418;18.882;2023-03-26T18:28:51;12.10;77.10
38380;DHT22;38377;47.418;18.882;2023-03-26T18:31:23;12.10;77.60
38380;DHT22;38377;47.418;18.882;2023-03-26T18:33:54;12.10;77.00
38380;DHT22;38377;47.418;18.882;2023-03-26T18:36:24;12.10;76.70
38380;DHT22;38377;47.418;18.882;2023-03-26T18:38:55;12.10;76.80
38380;DHT22;38377;47.418;18.882;2023-03-26T18:41:34;12.10;76.60
38380;DHT22;38377;47.418;18.882;2023-03-26T18:44:05;12.10;76.70
38380;DHT22;38377;47.418;18.882;2023-03-26T18:46:32;12.10;76.70
38380;DHT22;38377;47.418;18.882;2023-03-26T18:49:01;12.10;77.70
38380;DHT22;38377;47.418;18.882;2023-03-26T18:51:28;12.10;77.20
38380;DHT22;38377;47.418;18.882;2023-03-26T18:53:57;12.20;77.00
38380;DHT22;38377;47.418;18.882;2023-03-26T18:56:40;12.20;76.50
38380;DHT22;38377;47.418;18.882;2023-03-26T18:59:26;12.20;76.50
38380;DHT22;38377;47.418;18.882;2023-03-26T19:01:53;12.20;76.60
38380;DHT22;38377;47.418;18.882;2023-03-26T19:04:22;12.20;76.10
38380;DHT22;38377;47.418;18.882;2023-03-26T19:06:48;12.20;76.80
38380;DHT22;38377;47.418;18.882;2023-03-26T19:09:18;12.20;76.30
38380;DHT22;38377;47.418;18.882;2023-03-26T19:11:44;12.30;76.20
38380;DHT22;38377;47.418;18.882;2023-03-26T19:14:18;12.30;75.80
38380;DHT22;38377;47.418;18.882;2023-03-26T19:16:58;12.30;76.40
38380;DHT22;38377;47.418;18.882;2023-03-26T19:19:25;12.30;77.40
38380;DHT22;38377;47.418;18.882;2023-03-26T19:21:54;12.30;76.60
38380;DHT22;38377;47.418;18.882;2023-03-26T19:24:21;12.20;77.10
38380;DHT22;38377;47.418;18.882;2023-03-26T19:26:48;12.20;77.60
38380;DHT22;38377;47.418;18.882;2023-03-26T19:29:24;12.20;76.60
38380;DHT22;38377;47.418;18.882;2023-03-26T19:31:51;12.20;76.10
38380;DHT22;38377;47.418;18.882;2023-03-26T19:34:32;12.20;76.00
38380;DHT22;38377;47.418;18.882;2023-03-26T19:37:01;12.20;75.70
38380;DHT22;38377;47.418;18.882;2023-03-26T19:39:42;12.30;75.20
38380;DHT22;38377;47.418;18.882;2023-03-26T19:42:24;12.30;75.90
38380;DHT22;38377;47.418;18.882;2023-03-26T19:44:54;12.40;73.90
38380;DHT22;38377;47.418;18.882;2023-03-26T19:47:24;12.40;74.20
38380;DHT22;38377;47.418;18.882;2023-03-26T19:49:58;12.40;74.20
38380;DHT22;38377;47.418;18.882;2023-03-26T19:52:36;12.40;73.40
38380;DHT22;38377;47.418;18.882;2023-03-26T19:57:32;12.50;73.80
38380;DHT22;38377;47.418;18.882;2023-03-26T20:00:01;12.50;73.80
38380;DHT22;38377;47.418;18.882;2023-03-26T20:02:27;12.50;73.60
38380;DHT22;38377;47.418;18.882;2023-03-26T20:04:52;12.50;73.80
38380;DHT22;38377;47.418;18.882;2023-03-26T20:07:20;12.50;74.10
38380;DHT22;38377;47.418;18.882;2023-03-26T20:09:51;12.50;73.90
38380;DHT22;38377;47.418;18.882;2023-03-26T20:12:17;12.50;74.20
38380;DHT22;38377;47.418;18.882;2023-03-26T20:14:44;12.40;74.00
38380;DHT22;38377;47.418;18.882;2023-03-26T20:17:18;12.40;74.30
38380;DHT22;38377;47.418;18.882;2023-03-26T20:19:45;12.40;74.50
38380;DHT22;38377;47.418;18.882;2023-03-26T20:22:16;12.30;74.60
38380;DHT22;38377;47.418;18.882;2023-03-26T20:24:44;12.30;75.00
38380;DHT22;38377;47.418;18.882;2023-03-26T20:27:11;12.30;75.70
38380;DHT22;38377;47.418;18.882;2023-03-26T20:29:38;12.20;75.30
38380;DHT22;38377;47.418;18.882;2023-03-26T20:32:18;12.20;76.00
38380;DHT22;38377;47.418;18.882;2023-03-26T20:34:47;12.10;76.20
38380;DHT22;38377;47.418;18.882;2023-03-26T20:37:16;12.10;76.30
38380;DHT22;38377;47.418;18.882;2023-03-26T20:39:42;12.10;76.80
38380;DHT22;38377;47.418;18.882;2023-03-26T20:42:09;12.00;77.10
38380;DHT22;38377;47.418;18.882;2023-03-26T20:44:36;12.10;77.40
38380;DHT22;38377;47.418;18.882;2023-03-26T20:47:02;12.00;78.10
38380;DHT22;38377;47.418;18.882;2023-03-26T20:49:27;11.90;78.90
38380;DHT22;38377;47.418;18.882;2023-03-26T20:51:54;11.90;78.50
38380;DHT22;38377;47.418;18.882;2023-03-26T20:54:26;11.90;78.40
38380;DHT22;38377;47.418;18.882;2023-03-26T20:56:52;11.80;79.40
38380;DHT22;38377;47.418;18.882;2023-03-26T20:59:23;11.80;79.30
38380;DHT22;38377;47.418;18.882;2023-03-26T21:01:51;11.80;79.30
38380;DHT22;38377;47.418;18.882;2023-03-26T21:04:19;11.80;79.80
38380;DHT22;38377;47.418;18.882;2023-03-26T21:06:45;11.80;79.80
38380;DHT22;38377;47.418;18.882;2023-03-26T21:09:12;11.70;79.90
38380;DHT22;38377;47.418;18.882;2023-03-26T21:16:52;11.70;80.90
38380;DHT22;38377;47.418;18.882;2023-03-26T21:19:18;11.60;81.90
38380;DHT22;38377;47.418;18.882;2023-03-26T21:22:02;11.60;83.10
38380;DHT22;38377;47.418;18.882;2023-03-26T21:27:30;11.30;90.60
38380;DHT22;38377;47.418;18.882;2023-03-26T21:29:54;11.10;92.00
38380;DHT22;38377;47.418;18.882;2023-03-26T21:32:21;10.80;93.30
38380;DHT22;38377;47.418;18.882;2023-03-26T21:34:47;10.60;93.80
38380;DHT22;38377;47.418;18.882;2023-03-26T21:37:14;10.40;94.40
38380;DHT22;38377;47.418;18.882;2023-03-26T21:39:42;10.40;95.20
38380;DHT22;38377;47.418;18.882;2023-03-26T21:42:10;10.30;96.70
38380;DHT22;38377;47.418;18.882;2023-03-26T21:44:37;10.20;96.60
38380;DHT22;38377;47.418;18.882;2023-03-26T21:47:03;10.20;97.40
38380;DHT22;38377;47.418;18.882;2023-03-26T21:49:29;10.20;98.00
38380;DHT22;38377;47.418;18.882;2023-03-26T21:51:55;10.20;97.60
38380;DHT22;38377;47.418;18.882;2023-03-26T21:54:29;10.20;98.10
38380;DHT22;38377;47.418;18.882;2023-03-26T21:59:36;10.20;99.00
38380;DHT22;38377;47.418;18.882;2023-03-26T22:02:16;10.10;99.90
38380;DHT22;38377;47.418;18.882;2023-03-26T22:09:52;9.80;99.90
38380;DHT22;38377;47.418;18.882;2023-03-26T22:12:18;9.70;99.90
38380;DHT22;38377;47.418;18.882;2023-03-26T22:14:43;9.60;99.90
38380;DHT22;38377;47.418;18.882;2023-03-26T22:17:09;9.40;99.90
38380;DHT22;38377;47.418;18.882;2023-03-26T22:19:35;9.30;99.90
38380;DHT22;38377;47.418;18.882;2023-03-26T22:22:01;9.20;99.90